Marathon, FL (33050)

7:53 AM EDT on August 04, 2015 (GMT -0400)
APRSWXNET | | Change Station
CLOSE
Current Station
Personal Weather Station
Location: Marathon, FL
Elevation: 15 ft
Nearby Weather Stations

Elev 15 ft 24.74 °N, 80.98 °W | Updated 30 minutes ago

Partly Cloudy
Partly Cloudy
82 °F
Feels Like 90 °F
N
6
Wind Variable Wind from East
Gusts 13.0 mph

Today
High -- | Low -- °F
--% Chance of Precip.
Yesterday
High -- | Low -- °F
Precip. -- in
6:53 AM 8:06 PM
Waning Gibbous, 78% visible
Pressure 30.01 in
Visibility 10.0 miles
Clouds Scattered Clouds 2500 ft
Heat Index 90 °F
Dew Point 76 °F
Humidity 83%
Rainfall in
Snow Depth Not available.
UV 0 out of 12
Pollen 3.80 out of 12
Air Quality Not available.
Flu Activity Not available.
METAR KNQX 041053Z 11005KT 10SM SCT025 28/23 A3002 RMK AO2 SLP163 T02780228 $

More Conditions Fewer Conditions

Pressure 30.01 in
Visibility 10.0 miles
Clouds Scattered Clouds 2500 ft
Heat Index 90 °F
Dew Point 76 °F
Humidity 83%
Rainfall in
Snow Depth Not available.
UV 0 out of 12
Pollen 3.80 out of 12
Air Quality Not available.
Flu Activity Not available.
METAR KNQX 041053Z 11005KT 10SM SCT025 28/23 A3002 RMK AO2 SLP163 T02780228 $

More Conditions Fewer Conditions

Nowcast | as of 6:04 am EDT on August 4, 2015

Through 8 am...a line of showers with thunderstorms embedded located from Marathon southwest 40 to 60 nautical miles will move west northwestward at 10 mph. Residents and mariners encountering these showers can expect a few lightning strikes...brief downpours...reduced visibilities...and gusty winds. Through sunrise...isolated showers and thunderstorms will increase increase across the Florida Keys coastal waters.

×

10-Day Weather Forecast

×

Almanac

Astronomy

Aug. 04, 2015 Rise Set
Actual Time
Civil Twilight
Nautical Twilight
Astronomical Twilight
Moon
Length of Visible Light
Length of Day
Tomorrow will be .
, % of the Moon is Illuminated

Today's Extremes

State Highs State Lows

Community

WunderPhotos

Upload Photos

1,843,900 photos uploaded!

WunderBlogs® & News

Nearby

Air Quality

  Air Quality AQ Index Pollutant
Not available.

Snow Depth

Station Depth Elevation

Earthquake Activity

City Distance Mag. Time & Date
Minimum magnitude displayed is 2.5.

Coastal Water Temperatures

Place Temperature

Stations

Nearby Weather Stations

Station Location Temp. Windchill Dew Point Humidity Wind Precip. Elev Updated Type